Aviation Digital Data Service (ADDS)

Output produced by METARs form (0832 UTC 17 November 2018)
found at http://www.aviationweather.gov/metar/data/
 
ZBHH 170800Z 23006MPS CAVOK 01/M15 Q1020 NOSIG
TAF ZBHH 170306Z 1706/1806 23004MPS 9999 FEW040 TX01/1707Z TNM10/22Z
       
ZGGG 170800Z 05002MPS 010V080 9999 SCT016 BKN026 20/17 Q1015 NOSIG
TAF ZGGG 170313Z 1706/1806 02004MPS 8000 OVC030 TX22/1706Z TN17/1722Z 
     TEMPO 1712/1718 4500 -RA
       
ZGSZ 170800Z 03002MPS 360V060 5000 BR SCT017 OVC027 24/20 Q1014 NOSIG
TAF ZGSZ 170303Z 1706/1806 03004MPS 5000 BR SCT012 BKN030 TX25/1706Z TN21/1722Z
       
ZBTJ 170800Z 21003MPS 180V240 8000 NSC 10/M02 Q1022 NOSIG
TAF ZBTJ 170300Z 1706/1806 24004MPS 5000 HZ NSC TX11/1707Z TN02/1721Z
       
ZBAA 170800Z 19004MPS 160V240 CAVOK 10/M12 Q1022 NOSIG
TAF ZBAA 170330Z 1706/1806 18004MPS 6000 NSC TX10/1707Z TNM03/22Z
       
ZSFZ 170800Z 02003MPS 9999 -RA SCT012 OVC030 17/16 Q1018 NOSIG
TAF ZSFZ 170304Z 1706/1806 03006MPS 6000 SCT009 OVC015 TX18/1706Z TN17/1721Z
       
ZYCC 170800Z 25003MPS CAVOK 00/M10 Q1021 NOSIG
TAF ZYCC 170308Z 1706/1806 24004MPS CAVOK TX02/1706Z TNM07/22Z
       
ZWWW 170800Z 33002MPS 2000 FU NSC M06/M11 Q1028 BECMG TL0850 1400 FU
TAF ZWWW 170307Z 1706/1806 32002MPS 4000 FU NSC TXM04/08Z TNM10/23Z 
     BECMG 1712/1713 18003MPS 2000 BR 
     BECMG 1801/1802 36003MPS 1400 BR 
     TEMPO 1801/1805 0700 FZFG BKN003
       
ZSAM 170800Z 03003MPS 9999 SCT030 22/17 Q1017 NOSIG
TAF ZSAM 170311Z 1706/1806 05004G09MPS 7000 BKN030 TX24/1706Z TN19/1721Z
       
ZSSS 170800Z 03004MPS 9999 FEW040 15/08 Q1022 NOSIG
TAF ZSSS 170312Z 1706/1806 05004MPS 6000 BKN020 TX17/1707Z TN11/1721Z
       
ZGHA 170800Z 36003MPS 2600 -RA BR BKN004 OVC040 12/12 Q1020 BECMG TL0900 BKN006 OVC050
TAF ZGHA 170220Z 1706/1806 35004MPS 2500 -RA BR FEW006 BKN011 OVC050 TX14/1707Z
TN12/1722Z
       
ZUCK 170800Z 27003MPS 3000 -RA BR FEW003 SCT010 OVC040 10/09 Q1018 NOSIG
TAF ZUCK 170308Z 1706/1806 18003MPS 6000 SCT010 OVC040 TX12/1708Z TN08/1721Z 
     BECMG 1711/1712 3500 -RA BR FEW003 SCT007 OVC040 
     BECMG 1800/1801 5000 BR SCT010 OVC040
       
ZWSH 170800Z 08002MPS 050V130 7000 BKN040 04/M03 Q1027 NOSIG
TAF ZWSH 170308Z 1706/1806 06004MPS 6000 SCT040 TX04/1709Z TNM01/00Z 
     BECMG 1714/1715 32004MPS
       
ZGKL 170800Z 09002MPS 040V120 4000 -RA BR FEW006 SCT023 OVC040 15/13 Q1017 NOSIG
TAF ZGKL 170309Z 1706/1806 05003MPS 5000 BR FEW010 SCT026 OVC040 TX17/1708Z
TN13/1722Z 
     TEMPO 1706/1712 2500 -RA
       
ZSNB 170800Z 03003MPS 360V060 9999 BKN026 15/10 Q1022 NOSIG
TAF ZSNB 170217Z 1706/1806 36004MPS 3000 -RA BR FEW007 BKN020 TX16/1706Z
TN12/1721Z
       
ZSQD 170800Z VRB01MPS CAVOK 08/M02 Q1024 NOSIG
TAF ZSQD 170314Z 1706/1806 35003MPS CAVOK TX09/1706Z TN02/1721Z
       
ZSNJ 170800Z 07004MPS 9999 OVC046 13/08 Q1023 NOSIG
TAF ZSNJ 170304Z 1706/1806 04003MPS 3000 BR BKN030 TX13/1706Z TN08/1722Z
       
ZSOF 170800Z 04003MPS 9999 -RA FEW026 10/08 Q1023 NOSIG
TAF ZSOF 170315Z 1706/1806 02003MPS 4000 -RA BR OVC023 TX10/1706Z TN08/1722Z 
     BECMG 1710/1711 BKN008 OVC030 
     BECMG 1717/1718 2400 -RA BR 
     TEMPO 1718/1724 1400 BR
       
ZJHK 170800Z 12004MPS 080V150 9999 SCT026 28/23 Q1013 NOSIG
TAF ZJHK 170144Z 1706/1806 12004MPS 9999 SCT017 TX29/1706Z TN22/1718Z 
     TEMPO 1721/1724 0800 FG BKN003
       
ZJSY 170800Z 16005MPS 120V230 CAVOK 30/23 Q1012 NOSIG
TAF ZJSY 170306Z 1706/1806 18004MPS 9999 SCT018 TX32/1706Z TN23/1721Z
       
ZSPD 170800Z 04006MPS CAVOK 15/07 Q1022 NOSIG
TAF ZSPD 170324Z 1706/1806 05004MPS 6000 SCT020 TX18/1706Z TN11/1721Z
       
ZUUU 170800Z 01002MPS 320V040 9999 -RA SCT023 BKN040 08/07 Q1020 NOSIG
TAF ZUUU 170219Z 1706/1806 02003MPS 6000 SCT040 TX13/1805Z TN05/1723Z 
     TEMPO 1706/1712 -RA
       
ZYHB 170800Z VRB01MPS CAVOK M03/M11 Q1021 NOSIG
TAF ZYHB 170309Z 1706/1806 22003MPS 6000 SCT030 TX01/1706Z TNM09/21Z
       
ZYTX 170800Z VRB01MPS CAVOK 05/M07 Q1022 NOSIG
TAF ZYTX 170107Z 1706/1806 21004MPS 6000 NSC TX06/1706Z TNM07/21Z
       
ZHHH 170800Z 03003MPS 360V060 3500 -RA BR SCT008 OVC040 09/08 Q1021 NOSIG
TAF AMD ZHHH 170309Z 1700/1724 03003MPS 2500 -RA BR SCT015 TX12/1707Z TN07/1722Z

     BECMG 1707/1708 3000 -RA BR
       
ZPPP 170800Z 23011MPS CAVOK 20/00 Q1018 NOSIG
TAF AMD ZPPP 170644Z 1706/1806 22007MPS CAVOK TX20/1708Z TN07/1723Z 
     TEMPO 1706/1710 22012G17MPS
       
ZBYN 170800Z 22004MPS 180V250 5000 HZ NSC 05/M02 Q1022 NOSIG
TAF ZBYN 170313Z 1706/1806 24004MPS 6000 NSC TX07/1707Z TNM04/22Z
       
ZGNN 170800Z 07003MPS 040V120 9999 SCT011 OVC030 20/17 Q1014 NOSIG
TAF ZGNN 170306Z 1706/1806 04003MPS 5000 BR SCT010 OVC026 TX21/1707Z TN16/1722Z
       
ZLXY 170800Z 25002MPS 210V280 9999 FEW040 07/M02 Q1027 NOSIG
TAF ZLXY 170306Z 1706/1806 24003MPS 3000 HZ NSC TX07/1707Z TN02/1723Z
       
ZSHC 170800Z 06003MPS 9999 BKN023 14/10 Q1022 NOSIG
TAF ZSHC 170301Z 1706/1806 05003MPS 3000 -RA BR SCT010 BKN020 TX15/1707Z
TN11/1721Z
       
ZHCC 170800Z 24002MPS 210V280 6000 OVC040 08/03 Q1025 NOSIG
TAF ZHCC 170306Z 1706/1806 30003MPS 3000 BR NSC TX09/1707Z TN04/1722Z
       
ZBSJ 170800Z 16005MPS CAVOK 11/02 Q1022 NOSIG
TAF ZBSJ 170103Z 1706/1806 18004MPS 6000 NSC TX09/1706Z TN00/1721Z
       
ZLLL 170800Z 24003MPS 5000 -SN BR SCT016 BKN046 M03/M06 Q1024 NOSIG
TAF ZLLL 170307Z 1706/1806 07003MPS 6000 SCT040 TXM01/09Z TNM09/23Z 
     TEMPO 1709/1715 4000 -SN
       
ZYTL 170800Z 27005MPS CAVOK 08/M05 Q1023 NOSIG
TAF ZYTL 170311Z 1706/1806 28004G10MPS CAVOK TX11/1706Z TN01/1721Z